Time;durP1;ratioP1;P1;durP2;ratioP2;P2;SDS_P1;SDS_P2;PMS_P1;PMS_P2;Temp;Humidity;BMP_temperature;BMP_pressure;BME280_temperature;BME280_humidity;BME280_pressure;Samples;Min_cycle;Max_cycle;Signal;HPM_P1;HPM_P2
2023/04/30 00:01:00;;;;;;;0.50;0.50;;;;;;;;;;2052625;28;20039;-65
2023/04/30 00:02:19;;;;;;;0.40;0.40;;;;;;;;;;2052497;28;20504;-65
2023/04/30 00:03:37;;;;;;;0.30;0.30;;;;;;;;;;2054608;28;20039;-66
2023/04/30 00:04:56;;;;;;;0.68;0.52;;;;;;;;;;2054001;28;20030;-65
2023/04/30 00:06:15;;;;;;;0.40;0.40;;;;;;;;;;2053861;28;20031;-64
2023/04/30 00:07:34;;;;;;;0.40;0.38;;;;;;;;;;2053069;28;20106;-64
2023/04/30 00:08:53;;;;;;;0.40;0.35;;;;;;;;;;2053300;28;20035;-65
2023/04/30 00:10:12;;;;;;;0.98;0.47;;;;;;;;;;2052652;28;20030;-64
2023/04/30 00:11:30;;;;;;;0.38;0.38;;;;;;;;;;2052962;28;20031;-63
2023/04/30 00:12:49;;;;;;;0.55;0.55;;;;;;;;;;2052997;28;20039;-64
2023/04/30 00:14:09;;;;;;;0.30;0.30;;;;;;;;;;2054322;28;20361;-66
2023/04/30 00:15:27;;;;;;;0.40;0.40;;;;;;;;;;2054066;28;20489;-67
2023/04/30 00:16:47;;;;;;;0.25;0.25;;;;;;;;;;2052449;28;20030;-64
2023/04/30 00:18:06;;;;;;;0.93;0.50;;;;;;;;;;2051990;28;20395;-65
2023/04/30 00:19:25;;;;;;;0.30;0.30;;;;;;;;;;2053697;28;20532;-64
2023/04/30 00:20:44;;;;;;;0.45;0.45;;;;;;;;;;2054283;28;20059;-65
2023/04/30 00:22:04;;;;;;;0.40;0.40;;;;;;;;;;2052993;28;20028;-65
2023/04/30 00:23:23;;;;;;;0.32;0.30;;;;;;;;;;2053229;28;20436;-64
2023/04/30 00:24:42;;;;;;;0.30;0.28;;;;;;;;;;2054262;28;20030;-64
2023/04/30 00:26:01;;;;;;;0.40;0.40;;;;;;;;;;2054627;28;20063;-64
2023/04/30 00:27:20;;;;;;;0.43;0.40;;;;;;;;;;2053033;28;20027;-66
2023/04/30 00:28:39;;;;;;;0.40;0.40;;;;;;;;;;2053177;28;20027;-63
2023/04/30 00:29:58;;;;;;;0.63;0.30;;;;;;;;;;2054447;28;20496;-63
2023/04/30 00:31:17;;;;;;;0.70;0.65;;;;;;;;;;2053526;28;20043;-64
2023/04/30 00:32:36;;;;;;;0.40;0.40;;;;;;;;;;2053708;28;20059;-64
2023/04/30 00:33:55;;;;;;;0.30;0.30;;;;;;;;;;2053792;28;20718;-65
2023/04/30 00:35:15;;;;;;;0.75;0.55;;;;;;;;;;2054300;28;20039;-65
2023/04/30 00:36:34;;;;;;;0.65;0.35;;;;;;;;;;2052163;28;20991;-64
2023/04/30 00:37:53;;;;;;;0.43;0.40;;;;;;;;;;2052608;28;20042;-65
2023/04/30 00:39:12;;;;;;;1.02;0.60;;;;;;;;;;2053043;28;20031;-65
2023/04/30 00:40:33;;;;;;;0.50;0.50;;;;;;;;;;2052069;28;20380;-66
2023/04/30 00:41:51;;;;;;;0.82;0.47;;;;;;;;;;2052824;28;20027;-64
2023/04/30 00:43:10;;;;;;;0.50;0.50;;;;;;;;;;2055523;28;20022;-66
2023/04/30 00:44:29;;;;;;;0.40;0.40;;;;;;;;;;2054863;28;20026;-64
2023/04/30 00:45:48;;;;;;;0.55;0.55;;;;;;;;;;2054387;28;20071;-64
2023/04/30 00:47:07;;;;;;;0.60;0.60;;;;;;;;;;2051184;28;20500;-64
2023/04/30 00:48:26;;;;;;;0.50;0.50;;;;;;;;;;2052687;28;20038;-65
2023/04/30 00:49:46;;;;;;;1.63;0.40;;;;;;;;;;2053704;28;20026;-64
2023/04/30 00:51:04;;;;;;;0.50;0.50;;;;;;;;;;2052297;28;20031;-64
2023/04/30 00:52:23;;;;;;;0.20;0.20;;;;;;;;;;2054151;28;20031;-64
2023/04/30 00:53:42;;;;;;;0.50;0.50;;;;;;;;;;2053181;28;20043;-65
2023/04/30 00:55:01;;;;;;;0.50;0.47;;;;;;;;;;2053524;28;20494;-64
2023/04/30 00:56:20;;;;;;;0.63;0.50;;;;;;;;;;2053434;28;20043;-64
2023/04/30 00:57:39;;;;;;;0.50;0.50;;;;;;;;;;2052577;28;20038;-67
2023/04/30 00:58:59;;;;;;;0.38;0.38;;;;;;;;;;2054498;28;20086;-66
2023/04/30 01:00:18;;;;;;;0.50;0.50;;;;;;;;;;2054449;28;20022;-65
2023/04/30 01:01:37;;;;;;;0.43;0.43;;;;;;;;;;2049770;28;20027;-65
2023/04/30 01:02:56;;;;;;;0.70;0.70;;;;;;;;;;2053812;28;20027;-65
2023/04/30 01:04:16;;;;;;;0.40;0.40;;;;;;;;;;2054270;28;20380;-65
2023/04/30 01:05:35;;;;;;;0.47;0.32;;;;;;;;;;2050093;28;20042;-65
2023/04/30 01:06:55;;;;;;;1.17;0.60;;;;;;;;;;2045980;28;20493;-64
2023/04/30 01:08:14;;;;;;;0.47;0.40;;;;;;;;;;2052794;28;20083;-64
2023/04/30 01:09:33;;;;;;;0.40;0.40;;;;;;;;;;2053342;28;20034;-64
2023/04/30 01:11:16;;;;;;;0.73;0.70;;;;;;;;;;2053146;28;20027;-63
2023/04/30 01:12:41;;;;;;;3.50;0.20;;;;;;;;;;2054944;28;20408;-66
2023/04/30 01:14:09;;;;;;;0.60;0.55;;;;;;;;;;2053816;28;20406;-63
2023/04/30 01:15:35;;;;;;;0.65;0.50;;;;;;;;;;2055251;28;20035;-63
2023/04/30 01:17:05;;;;;;;0.40;0.30;;;;;;;;;;2054013;28;20047;-63
2023/04/30 01:18:30;;;;;;;0.50;0.50;;;;;;;;;;2055139;28;20039;-63
2023/04/30 01:19:49;;;;;;;0.50;0.50;;;;;;;;;;2057458;28;20034;-63
2023/04/30 01:21:08;;;;;;;0.47;0.47;;;;;;;;;;2055007;28;20031;-62
2023/04/30 01:22:26;;;;;;;1.92;0.50;;;;;;;;;;2052808;28;20047;-63
2023/04/30 01:24:04;;;;;;;1.98;0.50;;;;;;;;;;2052769;28;20035;-63
2023/04/30 01:25:42;;;;;;;0.70;0.47;;;;;;;;;;2051935;28;20034;-63
2023/04/30 01:27:19;;;;;;;0.40;0.40;;;;;;;;;;2056126;28;20027;-63
2023/04/30 01:28:41;;;;;;;1.10;0.60;;;;;;;;;;2055492;28;20117;-64
2023/04/30 01:30:00;;;;;;;1.83;0.40;;;;;;;;;;2056601;28;20034;-63
2023/04/30 01:31:19;;;;;;;0.40;0.40;;;;;;;;;;2054943;28;20657;-64
2023/04/30 01:32:38;;;;;;;0.45;0.45;;;;;;;;;;2054041;28;20039;-63
2023/04/30 01:33:57;;;;;;;0.40;0.40;;;;;;;;;;2054876;28;20027;-63
2023/04/30 01:35:16;;;;;;;0.90;0.40;;;;;;;;;;2054368;28;20114;-64
2023/04/30 01:36:49;;;;;;;1.58;0.50;;;;;;;;;;2055656;28;20187;-63
2023/04/30 01:38:23;;;;;;;0.40;0.40;;;;;;;;;;2055980;28;20074;-63
2023/04/30 01:40:01;;;;;;;0.60;0.60;;;;;;;;;;2057481;28;20522;-63
2023/04/30 01:41:23;;;;;;;0.50;0.45;;;;;;;;;;2055977;28;20388;-63
2023/04/30 01:42:55;;;;;;;1.50;0.43;;;;;;;;;;2055074;28;20027;-63
2023/04/30 01:44:28;;;;;;;0.93;0.50;;;;;;;;;;2054247;28;20400;-64
2023/04/30 01:45:54;;;;;;;0.43;0.40;;;;;;;;;;2054540;28;20031;-63
2023/04/30 01:47:27;;;;;;;3.88;0.77;;;;;;;;;;2054191;28;20034;-63
2023/04/30 01:48:52;;;;;;;0.50;0.50;;;;;;;;;;2052169;28;20153;-65
2023/04/30 01:50:24;;;;;;;0.82;0.63;;;;;;;;;;2056245;28;20118;-63
2023/04/30 01:51:45;;;;;;;0.40;0.40;;;;;;;;;;2054932;28;20520;-63
2023/04/30 01:53:15;;;;;;;0.70;0.65;;;;;;;;;;2055519;28;20034;-63
2023/04/30 01:54:34;;;;;;;0.95;0.60;;;;;;;;;;2055011;28;20035;-62
2023/04/30 01:55:53;;;;;;;0.55;0.55;;;;;;;;;;2053362;28;20027;-65
2023/04/30 01:57:15;;;;;;;1.80;0.45;;;;;;;;;;2055017;28;20031;-64
2023/04/30 01:58:34;;;;;;;0.40;0.40;;;;;;;;;;2054043;28;20548;-64
2023/04/30 01:59:53;;;;;;;0.47;0.47;;;;;;;;;;2054860;28;20150;-64
2023/04/30 02:01:29;;;;;;;0.38;0.38;;;;;;;;;;2054918;28;20027;-63
2023/04/30 02:02:48;;;;;;;0.52;0.50;;;;;;;;;;2055209;28;20110;-63
2023/04/30 02:04:07;;;;;;;1.50;0.50;;;;;;;;;;2054183;28;20098;-64
2023/04/30 02:05:26;;;;;;;0.32;0.32;;;;;;;;;;2053817;28;20547;-63
2023/04/30 02:06:45;;;;;;;0.30;0.30;;;;;;;;;;2053272;28;20105;-63
2023/04/30 02:08:04;;;;;;;0.60;0.52;;;;;;;;;;2054201;28;20031;-64
2023/04/30 02:09:23;;;;;;;0.47;0.47;;;;;;;;;;2052313;28;20046;-64
2023/04/30 02:10:43;;;;;;;0.40;0.40;;;;;;;;;;2054525;28;20031;-63
2023/04/30 02:12:02;;;;;;;0.55;0.55;;;;;;;;;;2052030;28;20145;-66
2023/04/30 02:13:21;;;;;;;1.20;0.50;;;;;;;;;;2054036;28;20058;-63
2023/04/30 02:14:40;;;;;;;0.82;0.60;;;;;;;;;;2055943;28;20035;-63
2023/04/30 02:15:59;;;;;;;0.40;0.40;;;;;;;;;;2053434;28;20453;-63
2023/04/30 02:17:18;;;;;;;1.63;0.57;;;;;;;;;;2053840;28;20031;-63
2023/04/30 02:18:37;;;;;;;1.52;0.50;;;;;;;;;;2053945;28;22282;-63
2023/04/30 02:19:57;;;;;;;0.73;0.52;;;;;;;;;;2051290;28;20018;-64
2023/04/30 02:21:17;;;;;;;0.73;0.60;;;;;;;;;;2055061;28;20054;-63
2023/04/30 02:22:36;;;;;;;0.85;0.47;;;;;;;;;;2052977;28;20054;-64
2023/04/30 02:23:55;;;;;;;0.70;0.70;;;;;;;;;;2052851;28;20031;-65
2023/04/30 02:25:14;;;;;;;0.70;0.52;;;;;;;;;;2054332;28;20030;-63
2023/04/30 02:26:33;;;;;;;3.15;0.47;;;;;;;;;;2054929;28;20054;-63
2023/04/30 02:27:52;;;;;;;1.38;0.40;;;;;;;;;;2056715;28;20447;-63
2023/04/30 02:29:11;;;;;;;0.55;0.50;;;;;;;;;;2055329;28;20113;-63
2023/04/30 02:30:30;;;;;;;0.50;0.50;;;;;;;;;;2052571;28;20050;-64
2023/04/30 02:31:49;;;;;;;0.65;0.57;;;;;;;;;;2052221;28;20533;-63
2023/04/30 02:33:11;;;;;;;0.50;0.50;;;;;;;;;;2055580;28;20019;-63
2023/04/30 02:34:30;;;;;;;4.68;0.65;;;;;;;;;;2053568;28;20023;-67
2023/04/30 02:35:49;;;;;;;3.50;0.40;;;;;;;;;;2053881;28;20058;-67
2023/04/30 02:37:08;;;;;;;0.40;0.40;;;;;;;;;;2052731;28;20602;-67
2023/04/30 02:38:27;;;;;;;0.88;0.50;;;;;;;;;;2053764;28;20051;-67
2023/04/30 02:39:46;;;;;;;0.50;0.50;;;;;;;;;;2056939;28;20071;-67
2023/04/30 02:41:05;;;;;;;0.50;0.40;;;;;;;;;;2053621;28;20031;-68
2023/04/30 02:42:24;;;;;;;0.40;0.40;;;;;;;;;;2053324;28;20503;-68
2023/04/30 02:43:43;;;;;;;2.70;0.40;;;;;;;;;;2054251;28;20031;-67
2023/04/30 02:45:03;;;;;;;0.40;0.40;;;;;;;;;;2056744;28;20464;-67
2023/04/30 02:46:21;;;;;;;0.45;0.45;;;;;;;;;;2052965;28;20086;-67
2023/04/30 02:47:40;;;;;;;2.05;0.60;;;;;;;;;;2053127;28;20039;-67
2023/04/30 02:48:59;;;;;;;0.88;0.50;;;;;;;;;;2053654;28;20436;-68
2023/04/30 02:50:18;;;;;;;0.38;0.35;;;;;;;;;;2054327;28;20082;-66
2023/04/30 02:51:37;;;;;;;2.30;0.57;;;;;;;;;;2052699;28;20030;-67
2023/04/30 02:52:56;;;;;;;1.10;0.45;;;;;;;;;;2056453;28;20496;-67
2023/04/30 02:54:15;;;;;;;0.60;0.50;;;;;;;;;;2054318;28;20117;-67
2023/04/30 02:55:33;;;;;;;1.70;0.60;;;;;;;;;;2054098;28;20031;-68
2023/04/30 02:56:52;;;;;;;0.75;0.50;;;;;;;;;;2051274;28;20406;-67
2023/04/30 02:58:12;;;;;;;0.57;0.45;;;;;;;;;;2053527;28;20027;-67
2023/04/30 02:59:31;;;;;;;1.17;0.70;;;;;;;;;;2054616;28;20420;-67
2023/04/30 03:00:50;;;;;;;0.60;0.60;;;;;;;;;;2052350;28;20055;-66
2023/04/30 03:02:09;;;;;;;0.30;0.30;;;;;;;;;;2054003;28;20042;-68
2023/04/30 03:03:28;;;;;;;0.47;0.47;;;;;;;;;;2054617;28;20055;-67
2023/04/30 03:04:47;;;;;;;0.30;0.30;;;;;;;;;;2054484;28;20405;-67
2023/04/30 03:06:06;;;;;;;0.65;0.40;;;;;;;;;;2055805;28;20038;-67
2023/04/30 03:07:25;;;;;;;1.38;0.43;;;;;;;;;;2054022;28;20027;-67
2023/04/30 03:08:44;;;;;;;2.20;0.40;;;;;;;;;;2052225;28;20059;-70
2023/04/30 03:10:03;;;;;;;1.65;0.30;;;;;;;;;;2053355;28;20437;-67
2023/04/30 03:11:22;;;;;;;0.32;0.32;;;;;;;;;;2054241;28;20078;-67
2023/04/30 03:12:41;;;;;;;1.85;0.50;;;;;;;;;;2054535;28;20082;-67
2023/04/30 03:14:00;;;;;;;0.40;0.40;;;;;;;;;;2052140;28;20516;-67
2023/04/30 03:15:19;;;;;;;0.47;0.40;;;;;;;;;;2053192;28;20039;-66
2023/04/30 03:16:38;;;;;;;0.30;0.30;;;;;;;;;;2053047;28;20030;-67
2023/04/30 03:17:57;;;;;;;1.83;0.50;;;;;;;;;;2054522;28;20035;-67
2023/04/30 03:19:16;;;;;;;0.30;0.30;;;;;;;;;;2053109;28;20212;-67
2023/04/30 03:20:35;;;;;;;0.30;0.30;;;;;;;;;;2054428;28;20570;-67
2023/04/30 03:21:54;;;;;;;0.98;0.32;;;;;;;;;;2055083;28;20121;-67
2023/04/30 03:23:13;;;;;;;0.30;0.30;;;;;;;;;;2055546;28;20066;-66
2023/04/30 03:24:33;;;;;;;0.47;0.40;;;;;;;;;;2055771;28;20030;-67
2023/04/30 03:25:52;;;;;;;0.30;0.30;;;;;;;;;;2050791;28;20114;-67
2023/04/30 03:27:11;;;;;;;0.95;0.47;;;;;;;;;;2052796;28;20481;-67
2023/04/30 03:28:30;;;;;;;0.45;0.45;;;;;;;;;;2053388;28;20038;-66
2023/04/30 03:29:48;;;;;;;0.30;0.30;;;;;;;;;;2053309;28;20063;-67
2023/04/30 03:31:08;;;;;;;0.55;0.55;;;;;;;;;;2052410;28;20031;-66
2023/04/30 03:32:26;;;;;;;0.93;0.52;;;;;;;;;;2053000;28;20406;-67
2023/04/30 03:33:45;;;;;;;0.45;0.40;;;;;;;;;;2053355;28;20078;-67
2023/04/30 03:35:05;;;;;;;0.43;0.30;;;;;;;;;;2054157;28;20461;-67
2023/04/30 03:36:24;;;;;;;0.70;0.50;;;;;;;;;;2053064;28;20030;-66
2023/04/30 03:37:43;;;;;;;0.30;0.30;;;;;;;;;;2052012;28;20043;-66
2023/04/30 03:39:02;;;;;;;0.52;0.52;;;;;;;;;;2054418;28;20559;-67
2023/04/30 03:40:21;;;;;;;0.45;0.45;;;;;;;;;;2055124;28;20385;-66
2023/04/30 03:41:40;;;;;;;0.40;0.40;;;;;;;;;;2056177;28;20035;-67
2023/04/30 03:43:00;;;;;;;0.40;0.40;;;;;;;;;;2051977;28;20019;-66
2023/04/30 03:44:19;;;;;;;0.50;0.50;;;;;;;;;;2053436;28;20727;-67
2023/04/30 03:45:38;;;;;;;3.20;0.52;;;;;;;;;;2049830;28;20579;-66
2023/04/30 03:46:57;;;;;;;1.02;0.50;;;;;;;;;;2054106;28;20042;-67
2023/04/30 03:48:16;;;;;;;0.55;0.50;;;;;;;;;;2052479;28;20121;-67
2023/04/30 03:49:34;;;;;;;1.00;0.50;;;;;;;;;;2051127;28;20484;-67
2023/04/30 03:50:53;;;;;;;0.40;0.40;;;;;;;;;;2051155;28;20035;-66
2023/04/30 03:52:13;;;;;;;0.65;0.45;;;;;;;;;;2055306;28;20052;-67
2023/04/30 03:53:32;;;;;;;1.75;0.80;;;;;;;;;;2051189;28;20031;-66
2023/04/30 03:54:51;;;;;;;1.85;0.70;;;;;;;;;;2052543;28;20031;-68
2023/04/30 03:56:09;;;;;;;0.60;0.50;;;;;;;;;;2054872;28;20042;-66
2023/04/30 03:57:29;;;;;;;0.43;0.30;;;;;;;;;;2055824;28;20039;-67
2023/04/30 03:58:48;;;;;;;0.60;0.40;;;;;;;;;;2054581;28;20031;-68
2023/04/30 04:00:11;;;;;;;1.40;0.40;;;;;;;;;;2053503;28;20456;-67
2023/04/30 04:01:30;;;;;;;;;;;;;;;;;;2048875;28;20047;-67
2023/04/30 04:02:49;;;;;;;0.43;0.43;;;;;;;;;;2053794;28;19938;-67
2023/04/30 04:04:08;;;;;;;1.05;0.50;;;;;;;;;;2050524;28;20536;-67
2023/04/30 04:05:28;;;;;;;0.70;0.70;;;;;;;;;;2052599;28;21328;-67
2023/04/30 04:06:47;;;;;;;0.88;0.50;;;;;;;;;;2051151;28;20027;-68
2023/04/30 04:08:06;;;;;;;0.60;0.60;;;;;;;;;;2053998;28;20027;-67
2023/04/30 04:09:26;;;;;;;0.60;0.60;;;;;;;;;;2052598;28;20035;-67
2023/04/30 04:10:44;;;;;;;1.33;0.50;;;;;;;;;;2053520;28;20396;-68
2023/04/30 04:12:04;;;;;;;0.68;0.55;;;;;;;;;;2051729;28;20678;-68
2023/04/30 04:13:23;;;;;;;0.70;0.50;;;;;;;;;;2052215;28;20016;-68
2023/04/30 04:14:42;;;;;;;2.22;0.82;;;;;;;;;;2053198;28;20114;-68
2023/04/30 04:16:01;;;;;;;0.90;0.63;;;;;;;;;;2054524;28;20389;-68
2023/04/30 04:17:20;;;;;;;0.85;0.60;;;;;;;;;;2051662;28;20031;-68
2023/04/30 04:18:39;;;;;;;0.68;0.63;;;;;;;;;;2053421;28;20032;-68
2023/04/30 04:19:58;;;;;;;0.82;0.70;;;;;;;;;;2053906;28;20450;-68
2023/04/30 04:21:17;;;;;;;1.45;0.50;;;;;;;;;;2053439;28;20023;-68
2023/04/30 04:22:36;;;;;;;0.73;0.70;;;;;;;;;;2053591;28;20117;-68
2023/04/30 04:23:55;;;;;;;0.82;0.55;;;;;;;;;;2052363;28;20033;-67
2023/04/30 04:25:14;;;;;;;10.95;0.73;;;;;;;;;;2052441;28;20059;-67
2023/04/30 04:26:36;;;;;;;0.60;0.60;;;;;;;;;;2054072;28;20114;-67
2023/04/30 04:27:55;;;;;;;1.33;0.68;;;;;;;;;;2054345;28;20062;-70
2023/04/30 04:29:14;;;;;;;3.10;0.80;;;;;;;;;;2053524;28;20046;-67
2023/04/30 04:30:33;;;;;;;0.60;0.50;;;;;;;;;;2052749;28;20030;-67
2023/04/30 04:31:54;;;;;;;0.75;0.60;;;;;;;;;;2052214;28;20031;-67
2023/04/30 04:33:13;;;;;;;0.68;0.60;;;;;;;;;;2055247;28;20061;-67
2023/04/30 04:34:32;;;;;;;3.60;0.93;;;;;;;;;;2053264;28;20023;-67
2023/04/30 04:35:51;;;;;;;2.83;0.85;;;;;;;;;;2053652;28;20117;-67
2023/04/30 04:37:10;;;;;;;0.57;0.50;;;;;;;;;;2053598;28;20035;-67
2023/04/30 04:38:29;;;;;;;1.45;0.45;;;;;;;;;;2054483;28;20039;-67
2023/04/30 04:39:48;;;;;;;0.95;0.80;;;;;;;;;;2055726;28;20027;-67
2023/04/30 04:41:08;;;;;;;3.13;0.80;;;;;;;;;;2053885;28;20050;-67
2023/04/30 04:42:27;;;;;;;0.52;0.50;;;;;;;;;;2052039;28;20039;-67
2023/04/30 04:43:46;;;;;;;0.98;0.60;;;;;;;;;;2053626;28;20031;-67
2023/04/30 04:45:06;;;;;;;1.70;0.65;;;;;;;;;;2054973;28;20496;-67
2023/04/30 04:46:27;;;;;;;0.70;0.45;;;;;;;;;;2053679;28;20027;-67
2023/04/30 04:47:46;;;;;;;0.85;0.60;;;;;;;;;;2051786;28;20387;-67
2023/04/30 04:49:05;;;;;;;2.25;0.70;;;;;;;;;;2054233;28;20121;-67
2023/04/30 04:50:24;;;;;;;0.60;0.60;;;;;;;;;;2052228;28;20023;-67
2023/04/30 04:51:43;;;;;;;3.33;0.93;;;;;;;;;;2052466;28;20023;-67
2023/04/30 04:53:01;;;;;;;0.63;0.63;;;;;;;;;;2051277;28;20039;-67
2023/04/30 04:54:21;;;;;;;0.60;0.60;;;;;;;;;;2049221;28;20416;-67
2023/04/30 04:55:39;;;;;;;4.88;0.60;;;;;;;;;;2053728;28;20443;-67
2023/04/30 04:56:58;;;;;;;2.25;0.80;;;;;;;;;;2052433;28;20109;-67
2023/04/30 04:58:17;;;;;;;8.43;1.15;;;;;;;;;;2052970;28;20035;-67
2023/04/30 04:59:36;;;;;;;2.78;0.70;;;;;;;;;;2050974;28;20102;-67
2023/04/30 05:00:56;;;;;;;0.70;0.70;;;;;;;;;;2054959;28;20023;-67
2023/04/30 05:02:15;;;;;;;1.52;0.50;;;;;;;;;;2052062;28;20035;-67
2023/04/30 05:03:35;;;;;;;0.80;0.60;;;;;;;;;;2053038;28;20035;-67
2023/04/30 05:04:54;;;;;;;3.13;0.50;;;;;;;;;;2051303;28;20091;-68
2023/04/30 05:06:13;;;;;;;1.73;0.75;;;;;;;;;;2053380;28;20023;-67
2023/04/30 05:07:33;;;;;;;0.32;0.32;;;;;;;;;;2052736;28;20042;-68
2023/04/30 05:08:52;;;;;;;3.92;0.65;;;;;;;;;;2052436;28;20042;-67
2023/04/30 05:10:11;;;;;;;0.73;0.68;;;;;;;;;;2051809;28;20062;-67
2023/04/30 05:11:30;;;;;;;1.25;0.70;;;;;;;;;;2052777;28;20031;-67
2023/04/30 05:12:49;;;;;;;0.80;0.52;;;;;;;;;;2052882;28;20038;-68
2023/04/30 05:14:08;;;;;;;0.60;0.60;;;;;;;;;;2052190;28;20035;-67
2023/04/30 05:15:27;;;;;;;3.22;1.27;;;;;;;;;;2053818;28;20085;-67
2023/04/30 05:16:46;;;;;;;0.50;0.50;;;;;;;;;;2053647;28;20082;-67
2023/04/30 05:18:05;;;;;;;1.17;0.80;;;;;;;;;;2054386;28;20031;-66
2023/04/30 05:19:24;;;;;;;1.83;0.93;;;;;;;;;;2054076;28;20532;-68
2023/04/30 05:20:43;;;;;;;0.70;0.52;;;;;;;;;;2054648;28;20101;-67
2023/04/30 05:22:03;;;;;;;2.60;0.95;;;;;;;;;;2050936;28;20525;-67
2023/04/30 05:23:22;;;;;;;0.80;0.50;;;;;;;;;;2055556;28;20035;-66
2023/04/30 05:24:41;;;;;;;2.65;0.70;;;;;;;;;;2054812;28;20023;-66
2023/04/30 05:26:01;;;;;;;1.65;0.65;;;;;;;;;;2051618;28;20027;-66
2023/04/30 05:27:20;;;;;;;2.40;0.55;;;;;;;;;;2052825;28;20031;-66
2023/04/30 05:28:39;;;;;;;0.47;0.47;;;;;;;;;;2052316;28;20560;-66
2023/04/30 05:29:57;;;;;;;0.60;0.60;;;;;;;;;;2054362;28;20153;-67
2023/04/30 05:31:17;;;;;;;0.98;0.88;;;;;;;;;;2054530;28;20428;-66
2023/04/30 05:32:35;;;;;;;0.75;0.63;;;;;;;;;;2051456;28;20031;-68
2023/04/30 05:33:54;;;;;;;1.80;0.60;;;;;;;;;;2053534;28;20411;-67
2023/04/30 05:35:13;;;;;;;1.77;0.75;;;;;;;;;;2055821;28;20038;-67
2023/04/30 05:36:32;;;;;;;0.50;0.50;;;;;;;;;;2055721;28;20034;-67
2023/04/30 05:37:51;;;;;;;0.60;0.60;;;;;;;;;;2050952;28;20047;-67
2023/04/30 05:39:10;;;;;;;2.83;1.00;;;;;;;;;;2049350;28;20419;-68
2023/04/30 05:40:29;;;;;;;0.77;0.77;;;;;;;;;;2053322;28;20030;-67
2023/04/30 05:41:49;;;;;;;0.90;0.68;;;;;;;;;;2054101;28;20027;-67
2023/04/30 05:43:07;;;;;;;0.70;0.68;;;;;;;;;;2053466;28;20109;-67
2023/04/30 05:44:29;;;;;;;1.27;0.70;;;;;;;;;;2051819;28;20035;-66
2023/04/30 05:45:48;;;;;;;4.68;0.70;;;;;;;;;;2051822;28;20499;-67
2023/04/30 05:47:06;;;;;;;2.67;0.60;;;;;;;;;;2051591;28;20495;-67
2023/04/30 05:48:26;;;;;;;3.78;0.63;;;;;;;;;;2054776;28;20043;-67
2023/04/30 05:49:45;;;;;;;1.85;0.50;;;;;;;;;;2052221;28;20038;-67
2023/04/30 05:51:06;;;;;;;1.23;0.35;;;;;;;;;;2049790;28;20070;-68
2023/04/30 05:52:26;;;;;;;0.55;0.55;;;;;;;;;;2053747;28;20071;-67
2023/04/30 05:53:45;;;;;;;2.00;0.68;;;;;;;;;;2052538;28;20035;-67
2023/04/30 05:55:04;;;;;;;1.48;0.45;;;;;;;;;;2052882;28;20027;-66
2023/04/30 05:56:24;;;;;;;8.18;1.20;;;;;;;;;;2054272;28;20504;-67
2023/04/30 05:57:43;;;;;;;0.80;0.75;;;;;;;;;;2055166;28;20074;-67
2023/04/30 05:59:02;;;;;;;0.85;0.60;;;;;;;;;;2054320;28;20039;-67
2023/04/30 06:00:21;;;;;;;0.95;0.80;;;;;;;;;;2054512;28;20019;-67
2023/04/30 06:01:40;;;;;;;0.95;0.88;;;;;;;;;;2052740;28;20581;-67
2023/04/30 06:02:59;;;;;;;2.95;0.57;;;;;;;;;;2055385;28;20551;-67
2023/04/30 06:04:18;;;;;;;1.70;0.47;;;;;;;;;;2054475;28;20492;-67
2023/04/30 06:05:40;;;;;;;1.75;0.60;;;;;;;;;;2055139;28;20047;-67
2023/04/30 06:06:59;;;;;;;0.93;0.85;;;;;;;;;;2053879;28;20026;-67
2023/04/30 06:08:21;;;;;;;8.23;1.40;;;;;;;;;;2054749;28;20035;-67
2023/04/30 06:09:40;;;;;;;0.82;0.60;;;;;;;;;;2052574;28;20043;-67
2023/04/30 06:10:59;;;;;;;3.55;0.73;;;;;;;;;;2051374;28;20035;-67
2023/04/30 06:12:18;;;;;;;0.82;0.65;;;;;;;;;;2053866;28;20052;-67
2023/04/30 06:13:38;;;;;;;3.60;0.70;;;;;;;;;;2054299;28;20043;-67
2023/04/30 06:14:57;;;;;;;2.40;0.93;;;;;;;;;;2056347;28;20027;-67
2023/04/30 06:16:16;;;;;;;0.85;0.80;;;;;;;;;;2055786;28;20039;-67
2023/04/30 06:17:35;;;;;;;1.38;0.63;;;;;;;;;;2054589;28;20042;-67
2023/04/30 06:18:54;;;;;;;2.13;0.70;;;;;;;;;;2054547;28;20110;-67
2023/04/30 06:20:13;;;;;;;0.90;0.60;;;;;;;;;;2054380;28;20500;-67
2023/04/30 06:21:32;;;;;;;0.60;0.60;;;;;;;;;;2055289;28;20043;-67
2023/04/30 06:22:51;;;;;;;0.95;0.60;;;;;;;;;;2056579;28;20452;-67
2023/04/30 06:24:10;;;;;;;4.38;1.08;;;;;;;;;;2054853;28;20035;-67
2023/04/30 06:25:29;;;;;;;1.67;0.50;;;;;;;;;;2054025;28;20042;-68
2023/04/30 06:26:49;;;;;;;1.05;0.65;;;;;;;;;;2054453;28;20027;-68
2023/04/30 06:28:08;;;;;;;0.88;0.57;;;;;;;;;;2056129;28;20540;-67
2023/04/30 06:29:28;;;;;;;1.27;0.55;;;;;;;;;;2053649;28;20022;-68
2023/04/30 06:30:47;;;;;;;0.73;0.60;;;;;;;;;;2054015;28;20038;-67
2023/04/30 06:32:06;;;;;;;0.90;0.77;;;;;;;;;;2054484;28;20397;-67
2023/04/30 06:33:25;;;;;;;1.90;0.60;;;;;;;;;;2055884;28;20066;-67
2023/04/30 06:34:44;;;;;;;0.35;0.30;;;;;;;;;;2056736;28;20031;-66
2023/04/30 06:36:03;;;;;;;0.88;0.63;;;;;;;;;;2055207;28;20031;-67
2023/04/30 06:37:22;;;;;;;0.98;0.80;;;;;;;;;;2053066;28;20043;-66
2023/04/30 06:38:42;;;;;;;0.55;0.55;;;;;;;;;;2054631;28;20043;-66
2023/04/30 06:40:01;;;;;;;1.38;1.23;;;;;;;;;;2055969;28;20034;-66
2023/04/30 06:41:20;;;;;;;1.23;1.13;;;;;;;;;;2054073;28;20030;-69
2023/04/30 06:42:39;;;;;;;0.55;0.45;;;;;;;;;;2053976;28;20349;-67
2023/04/30 06:43:58;;;;;;;3.38;0.80;;;;;;;;;;2054984;28;20043;-67
2023/04/30 06:45:18;;;;;;;2.05;0.63;;;;;;;;;;2052623;28;20731;-67
2023/04/30 06:46:37;;;;;;;1.35;0.65;;;;;;;;;;2053136;28;20042;-67
2023/04/30 06:47:58;;;;;;;1.63;0.70;;;;;;;;;;2054142;28;20026;-67
2023/04/30 06:49:17;;;;;;;0.95;0.80;;;;;;;;;;2054093;28;20380;-67
2023/04/30 06:50:43;;;;;;;2.35;0.60;;;;;;;;;;2053495;28;20409;-67
2023/04/30 06:52:02;;;;;;;0.60;0.60;;;;;;;;;;2054131;28;20030;-68
2023/04/30 06:53:21;;;;;;;3.40;0.88;;;;;;;;;;2054292;28;20130;-67
2023/04/30 06:54:41;;;;;;;0.88;0.70;;;;;;;;;;2055321;28;20432;-67
2023/04/30 06:56:00;;;;;;;0.45;0.45;;;;;;;;;;2055510;28;20408;-67
2023/04/30 06:57:19;;;;;;;2.58;0.50;;;;;;;;;;2056093;28;20034;-67
2023/04/30 06:58:40;;;;;;;2.00;0.50;;;;;;;;;;2053657;28;20129;-67
2023/04/30 06:59:59;;;;;;;2.72;0.93;;;;;;;;;;2052910;28;20027;-67
2023/04/30 07:01:18;;;;;;;2.55;0.88;;;;;;;;;;2052809;28;20030;-67
2023/04/30 07:02:38;;;;;;;3.08;0.90;;;;;;;;;;2052685;28;20389;-67
2023/04/30 07:03:57;;;;;;;1.95;0.80;;;;;;;;;;2052114;28;20027;-67
2023/04/30 07:05:16;;;;;;;0.73;0.70;;;;;;;;;;2054658;28;20078;-67
2023/04/30 07:06:35;;;;;;;3.08;0.73;;;;;;;;;;2050941;28;20062;-67
2023/04/30 07:07:55;;;;;;;2.00;0.70;;;;;;;;;;2056311;28;20031;-67
2023/04/30 07:09:14;;;;;;;0.70;0.70;;;;;;;;;;2054800;28;20501;-67
2023/04/30 07:10:33;;;;;;;9.15;1.30;;;;;;;;;;2052901;28;20026;-67
2023/04/30 07:11:52;;;;;;;1.80;0.70;;;;;;;;;;2053075;28;20039;-70
2023/04/30 07:13:11;;;;;;;2.85;0.85;;;;;;;;;;2053710;28;20023;-67
2023/04/30 07:14:30;;;;;;;0.52;0.52;;;;;;;;;;2053915;28;20436;-67
2023/04/30 07:15:50;;;;;;;1.92;0.50;;;;;;;;;;2053821;28;20492;-67
2023/04/30 07:17:10;;;;;;;0.50;0.47;;;;;;;;;;2055549;28;20038;-67
2023/04/30 07:18:29;;;;;;;2.50;0.70;;;;;;;;;;2053075;28;20023;-67
2023/04/30 07:19:48;;;;;;;4.22;1.15;;;;;;;;;;2055473;28;20090;-67
2023/04/30 07:21:07;;;;;;;3.55;1.00;;;;;;;;;;2052460;28;20030;-67
2023/04/30 07:22:26;;;;;;;0.60;0.45;;;;;;;;;;2054711;28;20027;-68
2023/04/30 07:23:45;;;;;;;8.32;1.30;;;;;;;;;;2051804;28;20388;-67
2023/04/30 07:25:05;;;;;;;7.95;1.73;;;;;;;;;;2053428;28;20035;-67
2023/04/30 07:26:25;;;;;;;8.45;1.10;;;;;;;;;;2052081;28;20428;-67
2023/04/30 07:27:44;;;;;;;3.38;0.82;;;;;;;;;;2052700;28;20024;-68
2023/04/30 07:29:04;;;;;;;0.60;0.50;;;;;;;;;;2051857;28;20035;-66
2023/04/30 07:30:23;;;;;;;1.58;0.70;;;;;;;;;;2052142;28;20384;-69
2023/04/30 07:31:42;;;;;;;1.13;0.70;;;;;;;;;;2051348;28;20346;-67
2023/04/30 07:33:01;;;;;;;4.28;0.60;;;;;;;;;;2060989;28;20396;-66
2023/04/30 07:34:20;;;;;;;0.77;0.77;;;;;;;;;;2056495;28;20492;-67
2023/04/30 07:35:40;;;;;;;0.68;0.68;;;;;;;;;;2055593;28;20038;-67
2023/04/30 07:37:00;;;;;;;4.07;1.10;;;;;;;;;;2054679;28;20030;-66
2023/04/30 07:38:19;;;;;;;2.47;0.82;;;;;;;;;;2055755;28;20034;-67
2023/04/30 07:39:38;;;;;;;1.05;0.60;;;;;;;;;;2054139;28;20529;-67
2023/04/30 07:40:57;;;;;;;1.15;0.65;;;;;;;;;;2050908;28;20031;-68
2023/04/30 07:42:16;;;;;;;1.38;0.90;;;;;;;;;;2053218;28;20035;-68
2023/04/30 07:43:34;;;;;;;0.50;0.50;;;;;;;;;;2051577;28;20412;-67
2023/04/30 07:44:53;;;;;;;2.70;0.90;;;;;;;;;;2054176;28;20031;-67
2023/04/30 07:46:12;;;;;;;5.68;0.93;;;;;;;;;;2051838;28;20023;-68
2023/04/30 07:47:32;;;;;;;1.38;0.60;;;;;;;;;;2052594;28;20039;-68
2023/04/30 07:48:51;;;;;;;3.85;0.93;;;;;;;;;;2052208;28;20093;-68
2023/04/30 07:50:11;;;;;;;1.35;0.77;;;;;;;;;;2054367;28;20038;-67
2023/04/30 07:51:31;;;;;;;0.60;0.60;;;;;;;;;;2051367;28;20035;-68
2023/04/30 07:52:50;;;;;;;1.65;0.85;;;;;;;;;;2051501;28;20455;-67
2023/04/30 07:54:09;;;;;;;2.55;0.70;;;;;;;;;;2054255;28;20242;-68
2023/04/30 07:55:28;;;;;;;1.80;1.00;;;;;;;;;;2051540;28;20038;-67
2023/04/30 07:56:47;;;;;;;2.38;0.80;;;;;;;;;;2053852;28;20075;-67
2023/04/30 07:58:06;;;;;;;3.20;1.00;;;;;;;;;;2053895;28;21496;-67
2023/04/30 07:59:25;;;;;;;0.70;0.50;;;;;;;;;;2052480;28;20026;-66